LiveATC.Net - Listen to live air traffic control over the Internet!


ICAO: KGBG  IATA: GBG   Airport: Galesburg Municipal Airport
City: Galesburg   State/Province: Illinois
Country: United States   Continent: North America
KGBG METAR Weather: KGBG 210415Z AUTO 24007KT 10SM CLR 00/M04 A2996 RMK AO2 T10051040
KGBG Flight Activity (FlightAware)
KGBG Airport Info   (iFlightPlanner)
KGBG VFR Sectional Chart   (iFlightPlanner) 
KGBG IFR Low Chart   (iFlightPlanner) 

KGBG CTAF (Air Race Classic)
Feed Status: UP   Listeners: 0
Listen in your browser - HTML5 player (in browser, HTML5)
Click here to listen with your own player (launches your MP3 player)
KGBG CTAF (Air Race Classic) Audio Archives
FacilityFrequency
Galesburg CTAF123.000

NOTICE

Unauthorized use prohibited. See LiveATC.net Terms of Service


Find LiveATC Audio Streams


Airport/ARTCC Code

Frequency Search
(e.g., 124.400, 128.75)
Site-wide search
 


Browse LiveATC Feeds
Top 50 LiveATC Feeds
LiveATC Feed Map
Bad Weather Areas

LiveATC FAQ
Offer LiveATC feed
Contact LiveATC.net
Press Inquiries

LiveATC on iPhone
LiveATC on Android

Windows Phone
Windows 8/10

LiveATC Mobile
(Mobile browser)

ATC Audio Archives
Interesting Recordings

LiveATC Forums


Home Page
About LiveATC.net
Make a Donation
Terms of Use
Privacy Policy

Canadian Air Freqs

AIRMETs/SIGMETs

FAA Airport Status
Nat'l Airspace Status
Arrival Demand Charts


Server Software By:
Icecast.org
Liquidsoap